Time;durP1;ratioP1;P1;durP2;ratioP2;P2;SDS_P1;SDS_P2;PMS_P1;PMS_P2;Temp;Humidity;BMP_temperature;BMP_pressure;BME280_temperature;BME280_humidity;BME280_pressure;Samples;Min_cycle;Max_cycle;Signal;HPM_P1;HPM_P2
2022/05/09 00:01:41;;;;;;;6.17;5.10;;;;;;;;;;5019907;28;20339;-76
2022/05/09 00:04:08;;;;;;;7.10;5.87;;;;;;;;;;5017914;28;20337;-76
2022/05/09 00:06:34;;;;;;;6.10;5.40;;;;;;;;;;5024382;28;20202;-76
2022/05/09 00:09:00;;;;;;;7.67;5.80;;;;;;;;;;5022417;28;20167;-76
2022/05/09 00:11:26;;;;;;;6.03;5.43;;;;;;;;;;5020207;28;20655;-76
2022/05/09 00:13:53;;;;;;;7.30;5.63;;;;;;;;;;5020618;28;20188;-76
2022/05/09 00:16:20;;;;;;;6.10;5.50;;;;;;;;;;5024028;28;20211;-76
2022/05/09 00:18:47;;;;;;;6.67;5.97;;;;;;;;;;5023855;28;20186;-76
2022/05/09 00:21:13;;;;;;;7.30;6.60;;;;;;;;;;5024838;28;20685;-76
2022/05/09 00:23:39;;;;;;;5.97;5.00;;;;;;;;;;5022397;28;20197;-76
2022/05/09 00:26:06;;;;;;;6.63;5.97;;;;;;;;;;5019116;28;20189;-76
2022/05/09 00:28:33;;;;;;;7.30;6.30;;;;;;;;;;5016804;28;20277;-76
2022/05/09 00:31:04;;;;;;;7.60;5.87;;;;;;;;;;5017804;28;20198;-76
2022/05/09 00:33:30;;;;;;;7.80;6.50;;;;;;;;;;5023869;28;20182;-76
2022/05/09 00:35:57;;;;;;;6.27;5.60;;;;;;;;;;5029934;28;20190;-76
2022/05/09 00:38:24;;;;;;;6.67;5.83;;;;;;;;;;5018238;28;20237;-76
2022/05/09 00:43:37;;;;;;;7.40;5.83;;;;;;;;;;5019294;28;20198;-76
2022/05/09 00:46:04;;;;;;;7.53;5.90;;;;;;;;;;5021861;28;20309;-76
2022/05/09 00:48:31;;;;;;;7.67;6.20;;;;;;;;;;5018734;28;20174;-76
2022/05/09 00:50:57;;;;;;;7.10;6.33;;;;;;;;;;5020192;28;20276;-77
2022/05/09 00:53:24;;;;;;;6.90;5.90;;;;;;;;;;5015211;28;20248;-77
2022/05/09 00:56:13;;;;;;;6.77;5.47;;;;;;;;;;5020106;28;20210;-77
2022/05/09 00:58:43;;;;;;;6.50;5.80;;;;;;;;;;5013961;28;20361;-76
2022/05/09 01:01:10;;;;;;;5.67;5.17;;;;;;;;;;5016821;28;20211;-76
2022/05/09 01:03:48;;;;;;;6.43;5.83;;;;;;;;;;5021808;28;20329;-76
2022/05/09 01:06:14;;;;;;;6.40;5.57;;;;;;;;;;5018272;28;20194;-76
2022/05/09 01:08:40;;;;;;;6.40;5.80;;;;;;;;;;5018329;28;20270;-76
2022/05/09 01:11:11;;;;;;;7.77;6.43;;;;;;;;;;5021000;28;20346;-76
2022/05/09 01:13:49;;;;;;;8.43;6.27;;;;;;;;;;5014909;28;20183;-76
2022/05/09 01:16:17;;;;;;;6.73;6.13;;;;;;;;;;5008599;28;20219;-76
2022/05/09 01:18:44;;;;;;;9.00;6.57;;;;;;;;;;5022010;28;20194;-76
2022/05/09 01:21:30;;;;;;;7.93;6.73;;;;;;;;;;5024199;28;20295;-76
2022/05/09 01:23:56;;;;;;;6.57;5.70;;;;;;;;;;5015357;28;20175;-76
2022/05/09 01:26:23;;;;;;;7.23;6.53;;;;;;;;;;5022506;28;20198;-76
2022/05/09 01:28:49;;;;;;;6.53;5.93;;;;;;;;;;5022929;28;20190;-76
2022/05/09 01:31:16;;;;;;;7.57;6.60;;;;;;;;;;5016057;28;20178;-76
2022/05/09 01:33:46;;;;;;;7.20;6.50;;;;;;;;;;5015805;28;20662;-76
2022/05/09 01:36:16;;;;;;;7.07;6.40;;;;;;;;;;5017448;28;20289;-76
2022/05/09 01:38:48;;;;;;;6.53;5.97;;;;;;;;;;5018290;28;20187;-76
2022/05/09 01:41:15;;;;;;;7.67;6.97;;;;;;;;;;5018809;28;20577;-76
2022/05/09 01:43:42;;;;;;;7.00;6.30;;;;;;;;;;5017416;28;20197;-76
2022/05/09 01:46:13;;;;;;;7.93;6.87;;;;;;;;;;5025427;28;20206;-76
2022/05/09 01:51:25;;;;;;;7.57;6.67;;;;;;;;;;5022146;28;20647;-76
2022/05/09 01:53:54;;;;;;;7.53;6.83;;;;;;;;;;5016150;28;20233;-76
2022/05/09 01:56:22;;;;;;;8.03;7.17;;;;;;;;;;5028001;28;20229;-76
2022/05/09 01:58:49;;;;;;;7.47;6.77;;;;;;;;;;5013991;28;20202;-76
2022/05/09 02:01:16;;;;;;;7.73;6.90;;;;;;;;;;5020383;28;20211;-76
2022/05/09 02:03:45;;;;;;;7.60;6.90;;;;;;;;;;5023279;28;20205;-76
2022/05/09 02:06:16;;;;;;;8.00;7.20;;;;;;;;;;5035877;28;20198;-76
2022/05/09 02:08:42;;;;;;;10.13;7.30;;;;;;;;;;5026903;28;20211;-76
2022/05/09 02:11:08;;;;;;;8.40;7.03;;;;;;;;;;5021510;28;20815;-76
2022/05/09 02:13:35;;;;;;;7.80;6.83;;;;;;;;;;5022403;28;20189;-76
2022/05/09 02:16:01;;;;;;;9.10;7.23;;;;;;;;;;5022983;28;20191;-76
2022/05/09 02:18:27;;;;;;;8.00;7.20;;;;;;;;;;5028435;28;20604;-76
2022/05/09 02:20:53;;;;;;;8.90;7.33;;;;;;;;;;5015359;28;21556;-76
2022/05/09 02:23:20;;;;;;;8.43;7.53;;;;;;;;;;5024262;28;20258;-76
2022/05/09 02:25:46;;;;;;;7.57;6.87;;;;;;;;;;5030021;28;20202;-76
2022/05/09 02:28:13;;;;;;;9.70;7.07;;;;;;;;;;5018334;28;20708;-76
2022/05/09 02:30:40;;;;;;;8.63;7.73;;;;;;;;;;5020348;28;20210;-76
2022/05/09 02:33:07;;;;;;;9.63;8.40;;;;;;;;;;5019754;28;20197;-76
2022/05/09 02:35:33;;;;;;;8.77;7.63;;;;;;;;;;5023796;28;20218;-76
2022/05/09 02:38:00;;;;;;;9.83;8.93;;;;;;;;;;5027153;28;20215;-76
2022/05/09 02:40:26;;;;;;;9.23;8.33;;;;;;;;;;5026838;28;20380;-76
2022/05/09 02:42:52;;;;;;;9.63;8.73;;;;;;;;;;5025403;28;20261;-76
2022/05/09 02:45:19;;;;;;;9.43;8.53;;;;;;;;;;5022932;28;20240;-76
2022/05/09 02:47:45;;;;;;;10.10;9.10;;;;;;;;;;5028252;28;20977;-76
2022/05/09 02:50:12;;;;;;;9.57;8.67;;;;;;;;;;5029801;28;20182;-77
2022/05/09 02:52:39;;;;;;;10.30;9.27;;;;;;;;;;5026745;28;20190;-76
2022/05/09 02:55:06;;;;;;;9.73;8.80;;;;;;;;;;5030644;28;20192;-76
2022/05/09 02:57:32;;;;;;;9.70;8.70;;;;;;;;;;5027040;28;20210;-76
2022/05/09 02:59:58;;;;;;;10.23;8.73;;;;;;;;;;5023174;28;20203;-76
2022/05/09 03:02:25;;;;;;;10.00;9.00;;;;;;;;;;5026115;28;20206;-76
2022/05/09 03:04:51;;;;;;;10.00;9.03;;;;;;;;;;5025532;28;20637;-76
2022/05/09 03:07:18;;;;;;;12.73;10.27;;;;;;;;;;5030004;28;20202;-76
2022/05/09 03:09:45;;;;;;;11.40;10.03;;;;;;;;;;5021885;28;20187;-76
2022/05/09 03:12:13;;;;;;;9.80;8.90;;;;;;;;;;5018696;28;20245;-76
2022/05/09 03:14:39;;;;;;;10.53;9.53;;;;;;;;;;5026307;28;20191;-76
2022/05/09 03:17:07;;;;;;;9.97;8.97;;;;;;;;;;5030194;28;20213;-76
2022/05/09 03:19:33;;;;;;;10.10;8.90;;;;;;;;;;5023632;28;20647;-76
2022/05/09 03:21:59;;;;;;;10.90;9.83;;;;;;;;;;5022442;28;20206;-76
2022/05/09 03:24:26;;;;;;;10.70;9.70;;;;;;;;;;5021251;28;20201;-75
2022/05/09 03:26:52;;;;;;;10.43;9.53;;;;;;;;;;5028925;28;20206;-76
2022/05/09 03:29:19;;;;;;;10.70;9.10;;;;;;;;;;5019585;28;20531;-76
2022/05/09 03:31:46;;;;;;;10.70;9.70;;;;;;;;;;5025104;28;20667;-76
2022/05/09 03:34:12;;;;;;;10.33;9.17;;;;;;;;;;5024940;28;20182;-76
2022/05/09 03:36:39;;;;;;;11.50;10.30;;;;;;;;;;5024003;28;20207;-76
2022/05/09 03:39:05;;;;;;;10.17;9.17;;;;;;;;;;5024563;28;20270;-76
2022/05/09 03:41:36;;;;;;;10.47;9.37;;;;;;;;;;5029436;28;20306;-76
2022/05/09 03:44:02;;;;;;;11.53;10.33;;;;;;;;;;5016720;28;20183;-76
2022/05/09 03:46:28;;;;;;;11.87;10.10;;;;;;;;;;5028619;28;20210;-76
2022/05/09 03:48:54;;;;;;;11.07;9.97;;;;;;;;;;5016246;28;20183;-76
2022/05/09 03:51:20;;;;;;;12.00;10.00;;;;;;;;;;5026086;28;20183;-76
2022/05/09 03:53:46;;;;;;;11.33;10.07;;;;;;;;;;5019195;28;20183;-76
2022/05/09 03:56:13;;;;;;;11.47;10.23;;;;;;;;;;5021701;28;20689;-76
2022/05/09 03:58:39;;;;;;;10.17;9.27;;;;;;;;;;5021052;28;20201;-76
2022/05/09 04:01:07;;;;;;;12.33;11.03;;;;;;;;;;5026798;28;20211;-76
2022/05/09 04:03:34;;;;;;;11.50;9.83;;;;;;;;;;5022421;28;20320;-76
2022/05/09 04:06:00;;;;;;;12.47;10.90;;;;;;;;;;5025683;28;20186;-76
2022/05/09 04:08:26;;;;;;;13.50;10.50;;;;;;;;;;5028945;28;20708;-76
2022/05/09 04:10:54;;;;;;;11.87;10.67;;;;;;;;;;5023317;28;20183;-76
2022/05/09 04:13:20;;;;;;;12.67;11.47;;;;;;;;;;5020309;28;20193;-76
2022/05/09 04:18:35;;;;;;;11.30;10.10;;;;;;;;;;5020927;28;20194;-76
2022/05/09 04:21:02;;;;;;;11.37;9.90;;;;;;;;;;5019963;28;20206;-76
2022/05/09 04:23:28;;;;;;;11.10;10.00;;;;;;;;;;5020602;28;20282;-76
2022/05/09 04:25:54;;;;;;;11.50;10.40;;;;;;;;;;5030306;28;20187;-77
2022/05/09 04:28:22;;;;;;;11.37;10.10;;;;;;;;;;5020514;28;21852;-77
2022/05/09 04:30:51;;;;;;;11.50;10.40;;;;;;;;;;5028632;28;20189;-78
2022/05/09 04:33:17;;;;;;;11.00;9.83;;;;;;;;;;5030798;28;20183;-79
2022/05/09 04:35:44;;;;;;;10.70;9.63;;;;;;;;;;5028719;28;20265;-77
2022/05/09 04:38:14;;;;;;;13.23;11.17;;;;;;;;;;5027253;28;20206;-78
2022/05/09 04:40:41;;;;;;;12.37;9.80;;;;;;;;;;5020241;28;20202;-77
2022/05/09 04:43:07;;;;;;;12.80;10.70;;;;;;;;;;5023644;28;20206;-77
2022/05/09 04:45:33;;;;;;;11.90;9.67;;;;;;;;;;5017535;28;20817;-77
2022/05/09 04:48:00;;;;;;;11.50;10.40;;;;;;;;;;5031251;28;20202;-78
2022/05/09 04:50:26;;;;;;;11.37;10.23;;;;;;;;;;5026372;28;20183;-77
2022/05/09 04:52:53;;;;;;;11.17;10.17;;;;;;;;;;5023214;28;20182;-77
2022/05/09 04:55:19;;;;;;;11.73;10.63;;;;;;;;;;5029524;28;20341;-77
2022/05/09 04:57:48;;;;;;;12.40;11.17;;;;;;;;;;5025601;28;20324;-77
2022/05/09 05:00:16;;;;;;;12.37;10.90;;;;;;;;;;5023159;28;20301;-77
2022/05/09 05:02:42;;;;;;;10.97;9.97;;;;;;;;;;5028915;28;20258;-77
2022/05/09 05:05:09;;;;;;;12.67;10.70;;;;;;;;;;5027512;28;20237;-77
2022/05/09 05:07:36;;;;;;;13.50;11.03;;;;;;;;;;5026723;28;20206;-77
2022/05/09 05:10:03;;;;;;;12.50;11.20;;;;;;;;;;5025516;28;20752;-78
2022/05/09 05:12:29;;;;;;;12.43;11.23;;;;;;;;;;5019915;28;20305;-77
2022/05/09 05:14:56;;;;;;;13.17;10.80;;;;;;;;;;5024682;28;20187;-78
2022/05/09 05:17:22;;;;;;;12.77;10.93;;;;;;;;;;5029032;28;20198;-84
2022/05/09 05:19:49;;;;;;;12.03;10.73;;;;;;;;;;5031002;28;20175;-83
2022/05/09 05:22:16;;;;;;;10.80;9.70;;;;;;;;;;5029843;28;20666;-80
2022/05/09 05:24:44;;;;;;;11.57;9.83;;;;;;;;;;5025320;28;20302;-76
2022/05/09 05:27:11;;;;;;;11.20;10.03;;;;;;;;;;5025609;28;20198;-77
2022/05/09 05:29:38;;;;;;;10.30;9.20;;;;;;;;;;5017043;28;20187;-78
2022/05/09 05:32:14;;;;;;;10.97;9.97;;;;;;;;;;5019485;28;20182;-77
2022/05/09 05:34:40;;;;;;;13.13;10.57;;;;;;;;;;5020551;28;20197;-78
2022/05/09 05:37:07;;;;;;;12.40;10.67;;;;;;;;;;5020083;28;20207;-78
2022/05/09 05:39:36;;;;;;;12.83;11.63;;;;;;;;;;5016257;28;20576;-77
2022/05/09 05:42:03;;;;;;;11.70;10.53;;;;;;;;;;5027422;28;20205;-78
2022/05/09 05:44:30;;;;;;;11.20;10.10;;;;;;;;;;5034778;28;20183;-78
2022/05/09 05:46:56;;;;;;;11.67;10.57;;;;;;;;;;5013022;28;20231;-78
2022/05/09 05:49:27;;;;;;;12.20;11.00;;;;;;;;;;5021349;28;20182;-78
2022/05/09 05:51:53;;;;;;;12.67;11.00;;;;;;;;;;5023849;28;20202;-76
2022/05/09 05:54:19;;;;;;;12.40;11.20;;;;;;;;;;5021131;28;20174;-77
2022/05/09 05:56:45;;;;;;;13.00;11.60;;;;;;;;;;5021726;28;20207;-78
2022/05/09 05:59:11;;;;;;;11.73;10.63;;;;;;;;;;5025857;28;20203;-78
2022/05/09 06:01:38;;;;;;;12.47;11.23;;;;;;;;;;5014397;28;20203;-78
2022/05/09 06:04:04;;;;;;;11.67;9.47;;;;;;;;;;5027992;28;20186;-77
2022/05/09 06:06:30;;;;;;;9.83;8.87;;;;;;;;;;5015824;28;20195;-78
2022/05/09 06:08:56;;;;;;;9.67;8.70;;;;;;;;;;5025122;28;20209;-78
2022/05/09 06:11:22;;;;;;;12.10;10.30;;;;;;;;;;5020907;28;20194;-78
2022/05/09 06:13:48;;;;;;;12.23;10.03;;;;;;;;;;5017249;28;20182;-77
2022/05/09 06:16:14;;;;;;;10.83;8.20;;;;;;;;;;5017521;28;20290;-78
2022/05/09 06:18:41;;;;;;;12.60;8.27;;;;;;;;;;5021461;28;20215;-78
2022/05/09 06:21:07;;;;;;;11.37;10.30;;;;;;;;;;5012426;28;20203;-80
2022/05/09 06:23:34;;;;;;;11.50;9.40;;;;;;;;;;5025374;28;20186;-78
2022/05/09 06:26:00;;;;;;;12.23;9.13;;;;;;;;;;5038859;28;20191;-78
2022/05/09 06:28:26;;;;;;;9.37;8.00;;;;;;;;;;5014555;28;20210;-78
2022/05/09 06:30:53;;;;;;;8.13;6.90;;;;;;;;;;5028370;28;20186;-78
2022/05/09 06:33:24;;;;;;;8.27;6.60;;;;;;;;;;5028447;28;20207;-78
2022/05/09 06:35:51;;;;;;;8.07;6.80;;;;;;;;;;5023381;28;20182;-78
2022/05/09 06:38:18;;;;;;;8.53;6.30;;;;;;;;;;5004255;28;20190;-78
2022/05/09 06:40:44;;;;;;;7.00;6.30;;;;;;;;;;5023628;28;20211;-78
2022/05/09 06:43:13;;;;;;;7.37;6.27;;;;;;;;;;5027108;28;20240;-78
2022/05/09 06:45:41;;;;;;;7.63;6.17;;;;;;;;;;5019553;28;20544;-78
2022/05/09 06:48:08;;;;;;;9.60;6.60;;;;;;;;;;5026527;28;21132;-78
2022/05/09 06:50:35;;;;;;;7.30;6.20;;;;;;;;;;5020025;28;20190;-78
2022/05/09 06:53:05;;;;;;;6.77;5.67;;;;;;;;;;5022213;28;20521;-78
2022/05/09 06:55:32;;;;;;;6.47;5.87;;;;;;;;;;5018818;28;20724;-78
2022/05/09 06:57:58;;;;;;;9.77;6.23;;;;;;;;;;5021969;28;20873;-78
2022/05/09 07:00:25;;;;;;;6.73;6.03;;;;;;;;;;5018528;28;20286;-78
2022/05/09 07:02:51;;;;;;;7.67;6.00;;;;;;;;;;5027539;28;20241;-78
2022/05/09 07:05:18;;;;;;;7.40;6.00;;;;;;;;;;5024799;28;20572;-78
2022/05/09 07:07:45;;;;;;;6.70;5.53;;;;;;;;;;5021311;28;20199;-78
2022/05/09 07:10:13;;;;;;;8.10;6.17;;;;;;;;;;5015124;28;20818;-78
2022/05/09 07:12:49;;;;;;;6.30;5.57;;;;;;;;;;5028166;28;20269;-78
2022/05/09 07:15:22;;;;;;;7.47;5.40;;;;;;;;;;5028800;28;20197;-78
2022/05/09 07:17:50;;;;;;;7.77;6.67;;;;;;;;;;5018160;28;20286;-78
2022/05/09 07:20:17;;;;;;;8.23;5.63;;;;;;;;;;5017915;28;20662;-78
2022/05/09 07:22:46;;;;;;;6.07;5.30;;;;;;;;;;5017709;28;20590;-78
2022/05/09 07:25:13;;;;;;;5.90;5.30;;;;;;;;;;5024113;28;20186;-78
2022/05/09 07:27:42;;;;;;;7.40;5.40;;;;;;;;;;5024798;28;20198;-78
2022/05/09 07:30:19;;;;;;;6.83;5.30;;;;;;;;;;5016271;28;20257;-78
2022/05/09 07:32:45;;;;;;;7.27;5.57;;;;;;;;;;5015331;28;20187;-77
2022/05/09 07:35:12;;;;;;;8.20;5.40;;;;;;;;;;5018128;28;20198;-77
2022/05/09 07:37:40;;;;;;;7.10;5.00;;;;;;;;;;5028857;28;20273;-77
2022/05/09 07:40:08;;;;;;;6.57;5.20;;;;;;;;;;5026019;28;20189;-78
2022/05/09 07:42:34;;;;;;;6.50;5.20;;;;;;;;;;5027307;28;20183;-77
2022/05/09 07:45:01;;;;;;;8.37;6.07;;;;;;;;;;5022870;28;20280;-77
2022/05/09 07:47:27;;;;;;;6.97;5.00;;;;;;;;;;5027268;28;20237;-77
2022/05/09 07:49:53;;;;;;;7.73;5.27;;;;;;;;;;5019333;28;20185;-77
2022/05/09 07:52:20;;;;;;;6.33;5.37;;;;;;;;;;5027424;28;20182;-78
2022/05/09 07:54:46;;;;;;;6.47;5.40;;;;;;;;;;5021097;28;20183;-78
2022/05/09 07:57:13;;;;;;;5.80;5.27;;;;;;;;;;5023817;28;20203;-77
2022/05/09 07:59:39;;;;;;;7.97;5.80;;;;;;;;;;5029816;28;20221;-78
2022/05/09 08:02:06;;;;;;;5.77;4.93;;;;;;;;;;5016192;28;20557;-78
2022/05/09 08:04:51;;;;;;;6.60;4.83;;;;;;;;;;5018820;28;20969;-77
2022/05/09 08:07:17;;;;;;;6.90;5.23;;;;;;;;;;5019525;28;20762;-77
2022/05/09 08:09:43;;;;;;;7.50;5.10;;;;;;;;;;5022939;28;20205;-78
2022/05/09 08:12:10;;;;;;;5.57;5.07;;;;;;;;;;5029417;28;20194;-78
2022/05/09 08:14:36;;;;;;;6.30;4.90;;;;;;;;;;5015733;28;20252;-77
2022/05/09 08:17:03;;;;;;;5.87;4.77;;;;;;;;;;5020710;28;20202;-76
2022/05/09 08:19:55;;;;;;;5.97;5.37;;;;;;;;;;5031574;28;20245;-77
2022/05/09 08:22:21;;;;;;;6.40;5.27;;;;;;;;;;5015625;28;20353;-76
2022/05/09 08:24:47;;;;;;;5.47;4.97;;;;;;;;;;5022028;28;20189;-76
2022/05/09 08:27:14;;;;;;;6.13;5.53;;;;;;;;;;5018739;28;20207;-76
2022/05/09 08:29:40;;;;;;;7.07;5.40;;;;;;;;;;5016436;28;20595;-76
2022/05/09 08:32:07;;;;;;;6.03;5.10;;;;;;;;;;5017925;28;20182;-76
2022/05/09 08:34:34;;;;;;;5.67;4.97;;;;;;;;;;5014273;28;20331;-76
2022/05/09 08:37:00;;;;;;;6.47;5.30;;;;;;;;;;5024393;28;20203;-76
2022/05/09 08:39:26;;;;;;;7.13;5.50;;;;;;;;;;5017268;28;20657;-76
2022/05/09 08:42:05;;;;;;;7.90;5.20;;;;;;;;;;5018295;28;20226;-76
2022/05/09 08:44:51;;;;;;;5.37;4.60;;;;;;;;;;5023779;28;20590;-77
2022/05/09 08:47:28;;;;;;;5.57;4.53;;;;;;;;;;5025788;28;20194;-76
2022/05/09 08:49:57;;;;;;;5.63;4.80;;;;;;;;;;5020937;28;20186;-76
2022/05/09 08:52:42;;;;;;;5.73;5.23;;;;;;;;;;5027651;28;20213;-76
2022/05/09 08:55:09;;;;;;;7.50;4.87;;;;;;;;;;5025746;28;20187;-76
2022/05/09 08:58:00;;;;;;;7.93;5.10;;;;;;;;;;5017031;28;20297;-77
2022/05/09 09:00:30;;;;;;;5.93;5.10;;;;;;;;;;5017041;28;20735;-76
2022/05/09 09:03:15;;;;;;;5.10;4.60;;;;;;;;;;5026040;28;20196;-77
2022/05/09 09:05:44;;;;;;;6.93;4.70;;;;;;;;;;5026587;28;20642;-78
2022/05/09 09:08:17;;;;;;;5.67;4.73;;;;;;;;;;5009950;28;20212;-76
2022/05/09 09:10:46;;;;;;;5.33;4.83;;;;;;;;;;5034705;28;20211;-77
2022/05/09 09:13:26;;;;;;;7.60;4.50;;;;;;;;;;5024384;28;20194;-77
2022/05/09 09:16:11;;;;;;;7.03;5.17;;;;;;;;;;5021478;28;20186;-77
2022/05/09 09:18:55;;;;;;;5.73;4.90;;;;;;;;;;5015760;28;20187;-77
2022/05/09 09:21:51;;;;;;;5.67;5.00;;;;;;;;;;5029102;28;20211;-77
2022/05/09 09:24:28;;;;;;;5.33;4.83;;;;;;;;;;5023298;28;20198;-77
2022/05/09 09:27:01;;;;;;;5.20;4.60;;;;;;;;;;5022244;28;20420;-77
2022/05/09 09:29:34;;;;;;;5.30;4.60;;;;;;;;;;5020070;28;20194;-77
2022/05/09 09:32:11;;;;;;;6.13;4.57;;;;;;;;;;5018346;28;20196;-77
2022/05/09 09:34:56;;;;;;;5.27;4.77;;;;;;;;;;5018795;28;20178;-77
2022/05/09 09:37:22;;;;;;;8.43;4.90;;;;;;;;;;5030359;28;20220;-77
2022/05/09 09:39:48;;;;;;;6.47;4.70;;;;;;;;;;5022459;28;20290;-77
2022/05/09 09:42:15;;;;;;;5.87;4.53;;;;;;;;;;5028727;28;20242;-77
2022/05/09 09:44:44;;;;;;;7.07;4.90;;;;;;;;;;5027250;28;20179;-77
2022/05/09 09:47:10;;;;;;;6.83;5.13;;;;;;;;;;5028732;28;20336;-77
2022/05/09 09:49:41;;;;;;;6.87;4.90;;;;;;;;;;5032919;28;20253;-78
2022/05/09 09:52:26;;;;;;;6.07;4.90;;;;;;;;;;5016344;28;20670;-78
2022/05/09 09:54:54;;;;;;;6.10;5.50;;;;;;;;;;5022740;28;20551;-77
2022/05/09 09:57:22;;;;;;;6.70;5.57;;;;;;;;;;5020233;28;20641;-77
2022/05/09 09:59:48;;;;;;;5.97;5.10;;;;;;;;;;5018977;28;20205;-77
2022/05/09 10:02:23;;;;;;;6.80;5.07;;;;;;;;;;5027312;28;20992;-80
2022/05/09 10:04:49;;;;;;;6.10;4.77;;;;;;;;;;5026830;28;20183;-78
2022/05/09 10:07:27;;;;;;;8.33;5.20;;;;;;;;;;5026277;28;20221;-80
2022/05/09 10:10:07;;;;;;;7.53;5.63;;;;;;;;;;5029513;28;20245;-77
2022/05/09 10:12:33;;;;;;;6.57;5.57;;;;;;;;;;5031185;28;20177;-79
2022/05/09 10:15:01;;;;;;;5.90;5.37;;;;;;;;;;5033311;28;20761;-82
2022/05/09 10:17:32;;;;;;;6.13;5.40;;;;;;;;;;5030173;28;20267;-80
2022/05/09 10:19:59;;;;;;;6.67;5.67;;;;;;;;;;5026525;28;20205;-80
2022/05/09 10:25:24;;;;;;;7.70;5.63;;;;;;;;;;5028136;28;20190;-82
2022/05/09 10:28:10;;;;;;;5.90;5.27;;;;;;;;;;5034298;28;20209;-78
2022/05/09 10:30:38;;;;;;;5.63;5.10;;;;;;;;;;5033118;28;20579;-84
2022/05/09 10:33:08;;;;;;;6.20;5.10;;;;;;;;;;5031423;28;20188;-76
2022/05/09 10:35:42;;;;;;;5.17;4.67;;;18.90;48.00;;;;;;5032566;28;20252;-76
2022/05/09 10:38:15;;;;;;;5.57;5.03;;;23.40;56.00;;;;;;5026744;28;20289;-75
2022/05/09 10:40:47;;;;;;;5.30;4.80;;;23.20;56.00;;;;;;5025985;28;20202;-75
2022/05/09 10:43:26;;;;;;;5.27;4.77;;;23.10;55.80;;;;;;5029414;28;20179;-75
2022/05/09 10:45:53;;;;;;;5.60;4.53;;;23.00;55.80;;;;;;5031798;28;20185;-76
2022/05/09 10:48:29;;;;;;;5.83;4.70;;;22.90;55.70;;;;;;5029360;28;20190;-78
2022/05/09 10:51:16;;;;;;;5.03;4.53;;;23.20;55.80;;;;;;5028784;28;20227;-75
2022/05/09 10:54:21;;;;;;;5.97;4.57;;;;;;;;;;5029863;28;20190;-76
2022/05/09 10:56:51;;;;;;;5.30;4.80;;;;;;;;;;5012808;28;20238;-75
2022/05/09 10:59:26;;;;;;;5.57;4.90;;;;;;;;;;5030367;28;20209;-75
2022/05/09 11:02:04;;;;;;;5.00;4.17;;;;;;;;;;5029227;28;20768;-75
2022/05/09 11:04:31;;;;;;;6.67;5.00;;;;;;;;;;5018322;28;20650;-75
2022/05/09 11:07:07;;;;;;;8.10;4.47;;;;;;;;;;5032368;28;20241;-76
2022/05/09 11:09:36;;;;;;;6.27;4.40;;;;;;;;;;5030557;28;20719;-76
2022/05/09 11:12:10;;;;;;;5.57;4.23;;;;;;;;;;5034002;28;20647;-75
2022/05/09 11:14:42;;;;;;;6.13;4.27;;;;;;;;;;5033088;28;20661;-77
2022/05/09 11:17:14;;;;;;;5.60;4.27;;;;;;;;;;5026598;28;20217;-78
2022/05/09 11:20:16;;;;;;;7.80;4.57;;;;;;;;;;5031747;28;20547;-77
2022/05/09 11:22:54;;;;;;;5.47;4.27;;;;;;;;;;4987233;28;20633;-77
2022/05/09 11:25:22;;;;;;;6.00;4.00;;;;;;;;;;5027190;28;20277;-77
2022/05/09 11:28:07;;;;;;;4.60;4.20;;;;;;;;;;5029688;28;20225;-77
2022/05/09 11:30:43;;;;;;;5.30;4.27;;;;;;;;;;5044483;28;20236;-76
2022/05/09 11:33:09;;;;;;;5.33;4.23;;;;;;;;;;5019654;28;20210;-82
2022/05/09 11:35:36;;;;;;;4.47;4.07;;;;;;;;;;5032912;28;20581;-79
2022/05/09 11:38:24;;;;;;;4.40;3.97;;;;;;;;;;5030233;28;20252;-78
2022/05/09 11:41:11;;;;;;;5.80;4.00;;;;;;;;;;5028234;28;20658;-77
2022/05/09 11:43:37;;;;;;;6.13;4.23;;;;;;;;;;5021617;28;20224;-77
2022/05/09 11:46:24;;;;;;;4.27;3.87;;;;;;;;;;5032480;28;20179;-78
2022/05/09 11:48:51;;;;;;;4.37;3.97;;;;;;;;;;5030197;28;20176;-78
2022/05/09 11:51:17;;;;;;;4.63;4.00;;;;;;;;;;5034535;28;20232;-78
2022/05/09 11:53:45;;;;;;;4.23;3.83;;;;;;;;;;5027122;28;20228;-78
2022/05/09 11:56:11;;;;;;;4.53;4.00;;;;;;;;;;5023298;28;20174;-77
2022/05/09 11:58:38;;;;;;;4.67;3.93;;;;;;;;;;5025002;28;20229;-78
2022/05/09 12:01:05;;;;;;;6.23;3.87;;;;;;;;;;5018144;28;20207;-78
2022/05/09 12:03:40;;;;;;;5.47;4.20;;;;;;;;;;5020097;28;20179;-78
2022/05/09 12:06:14;;;;;;;4.50;3.90;;;;;;;;;;5021191;28;20222;-76
2022/05/09 12:08:47;;;;;;;5.10;4.57;;;;;;;;;;5027659;28;20216;-78
2022/05/09 12:11:24;;;;;;;5.57;4.20;;;;;;;;;;5025419;28;20225;-79
2022/05/09 12:13:51;;;;;;;4.10;3.70;;;;;;;;;;5024510;28;20219;-78
2022/05/09 12:16:36;;;;;;;4.63;3.80;;;;;;;;;;5021816;28;20252;-77
2022/05/09 12:19:27;;;;;;;4.93;3.70;;;;;;;;;;5020926;28;20933;-78
2022/05/09 12:22:12;;;;;;;3.70;3.40;;;;;;;;;;5021203;28;20644;-79
2022/05/09 12:24:42;;;;;;;4.27;3.77;;;;;;;;;;5026048;28;20275;-76
2022/05/09 12:27:29;;;;;;;4.20;3.80;;;;;;;;;;5039959;28;20674;-77
2022/05/09 12:29:58;;;;;;;4.47;3.67;;;;;;;;;;5033623;28;20194;-76
2022/05/09 12:32:24;;;;;;;4.10;3.70;;;;;;;;;;5025449;28;20186;-76
2022/05/09 12:34:52;;;;;;;4.47;3.90;;;;;;;;;;5027435;28;20201;-77
2022/05/09 12:37:23;;;;;;;4.43;3.67;;;;;;;;;;5024683;28;20553;-77
2022/05/09 12:39:52;;;;;;;5.53;3.87;;;;;;;;;;5027771;28;20715;-77
2022/05/09 12:42:24;;;;;;;4.63;3.70;;;;;;;;;;5025529;28;20217;-77
2022/05/09 12:44:51;;;;;;;6.57;3.80;;;;;;;;;;5024182;28;20611;-78
2022/05/09 12:47:29;;;;;;;3.80;3.50;;;;;;;;;;5032929;28;20650;-77
2022/05/09 12:50:01;;;;;;;4.13;3.40;;;;;;;;;;5028218;28;20645;-77
2022/05/09 12:52:31;;;;;;;3.90;3.50;;;;;;;;;;5027746;28;20218;-77
2022/05/09 12:57:54;;;;;;;4.00;3.57;;;;;;;;;;5028651;28;20665;-77
2022/05/09 13:00:25;;;;;;;3.70;3.40;;;;;;;;;;5026198;28;20202;-77
2022/05/09 13:02:51;;;;;;;3.50;3.20;;;;;;;;;;5017500;28;20599;-78
2022/05/09 13:05:18;;;;;;;4.20;3.57;;;;;;;;;;5026957;28;20259;-78
2022/05/09 13:08:00;;;;;;;6.13;3.50;;;;;;;;;;5024421;28;20205;-77
2022/05/09 13:10:29;;;;;;;4.53;3.40;;;;;;;;;;5025807;28;20183;-77
2022/05/09 13:13:06;;;;;;;3.93;3.60;;;;;;;;;;5039723;28;20177;-79
2022/05/09 13:15:33;;;;;;;3.97;3.17;;;;;;;;;;5032515;28;20183;-77
2022/05/09 13:18:07;;;;;;;4.10;3.70;;;;;;;;;;5031508;28;20203;-77
2022/05/09 13:20:47;;;;;;;4.20;3.80;;;;;;;;;;5028691;28;20214;-77
2022/05/09 13:23:14;;;;;;;4.30;3.90;;;;;;;;;;5037146;28;20192;-79
2022/05/09 13:25:41;;;;;;;4.53;3.77;;;;;;;;;;5028472;28;20238;-77
2022/05/09 13:28:09;;;;;;;3.50;3.20;;;;;;;;;;5026736;28;20238;-77
2022/05/09 13:30:36;;;;;;;4.00;3.70;;;;;;;;;;5027701;28;20214;-77
2022/05/09 13:33:03;;;;;;;4.17;3.87;;;;;;;;;;5037134;28;20185;-78
2022/05/09 13:35:33;;;;;;;5.23;3.40;;;;;;;;;;5028868;28;20200;-77
2022/05/09 13:38:15;;;;;;;3.40;3.10;;;;;;;;;;5034019;28;20204;-77
2022/05/09 13:40:41;;;;;;;4.00;3.50;;;;;;;;;;5032206;28;20216;-77
2022/05/09 13:43:08;;;;;;;3.70;3.40;;;;;;;;;;5033515;28;20202;-77
2022/05/09 13:45:34;;;;;;;3.67;3.37;;;;;;;;;;5035520;28;20183;-77
2022/05/09 13:48:01;;;;;;;3.97;3.53;;;;;;;;;;5034691;28;20697;-77
2022/05/09 13:50:33;;;;;;;3.43;3.13;;;;;;;;;;5028954;28;20186;-77
2022/05/09 13:53:04;;;;;;;4.50;3.60;;;;;;;;;;5014710;28;20680;-77
2022/05/09 13:55:41;;;;;;;3.50;3.20;;;;;;;;;;5027235;28;20767;-78
2022/05/09 13:58:07;;;;;;;3.60;3.20;;;;;;;;;;5022231;28;20208;-77
2022/05/09 14:00:39;;;;;;;4.30;3.43;;;;;;;;;;5030449;28;20223;-77
2022/05/09 14:03:16;;;;;;;4.27;3.57;;;;;;;;;;5034556;28;20638;-77
2022/05/09 14:05:42;;;;;;;3.63;3.33;;;;;;;;;;5034632;28;20266;-76
2022/05/09 14:08:11;;;;;;;3.90;3.60;;;;;;;;;;5027755;28;20240;-76
2022/05/09 14:10:38;;;;;;;3.77;3.40;;;;;;;;;;5016352;28;20185;-78
2022/05/09 14:13:23;;;;;;;3.70;3.33;;;;;;;;;;5027916;28;20650;-77
2022/05/09 14:15:55;;;;;;;5.00;3.50;;;;;;;;;;5026764;28;20195;-79
2022/05/09 14:18:22;;;;;;;4.57;3.43;;;;;;;;;;5033799;28;20172;-77
2022/05/09 14:20:49;;;;;;;4.03;3.73;;;;;;;;;;5033217;28;20203;-77
2022/05/09 14:23:17;;;;;;;4.93;3.50;;;;;;;;;;5032532;28;20170;-77
2022/05/09 14:31:55;;;;;;;3.20;3.00;;;;;;;;;;5025150;28;20182;-77
2022/05/09 14:34:22;;;;;;;3.50;3.20;;;;;;;;;;5034142;28;20255;-78
2022/05/09 14:36:48;;;;;;;3.23;2.80;;;;;;;;;;5034012;28;20702;-79
2022/05/09 14:39:30;;;;;;;3.33;3.03;;;;;;;;;;5028155;28;20272;-78
2022/05/09 14:42:10;;;;;;;3.60;3.00;;;;;;;;;;5030599;28;20736;-81
2022/05/09 14:44:37;;;;;;;3.20;2.90;;;;;;;;;;5027852;28;22841;-79
2022/05/09 14:47:09;;;;;;;3.67;2.97;;;;;;;;;;5022484;28;20207;-78
2022/05/09 14:49:44;;;;;;;3.22;2.92;;;;;;;;;;5032011;28;20188;-78
2022/05/09 14:52:14;;;;;;;3.42;3.10;;;;;;;;;;5013194;28;20190;-78
2022/05/09 14:54:44;;;;;;;3.13;2.70;;;;;;;;;;5026089;28;20248;-79
2022/05/09 14:57:27;;;;;;;3.45;2.90;;;;;;;;;;5029976;28;20263;-80
2022/05/09 15:00:03;;;;;;;3.13;2.72;;;;;;;;;;5030847;28;20205;-81
2022/05/09 15:02:31;;;;;;;2.80;2.60;;;;;;;;;;5033203;28;20221;-79
2022/05/09 15:05:05;;;;;;;3.10;2.80;;;;;;;;;;5024765;28;20232;-81
2022/05/09 15:07:32;;;;;;;3.00;2.70;;;;;;;;;;5028768;28;20270;-78
2022/05/09 15:09:58;;;;;;;3.50;2.43;;;;;;;;;;5031899;28;20178;-78
2022/05/09 15:12:26;;;;;;;3.00;2.80;;;;;;;;;;5022873;28;20660;-79